createdAt,value
2022-08-14T00:02:27.800Z,18.46
2022-08-14T00:04:59.867Z,18.50
2022-08-14T00:07:28.675Z,18.50
2022-08-14T00:10:50.284Z,18.52
2022-08-14T00:12:56.974Z,18.57
2022-08-14T00:15:44.090Z,18.58
2022-08-14T00:18:30.825Z,18.59
2022-08-14T00:21:11.040Z,18.52
2022-08-14T00:23:40.882Z,18.61
2022-08-14T00:26:21.719Z,18.64
2022-08-14T00:28:53.724Z,18.66
2022-08-14T00:31:35.100Z,18.69
2022-08-14T00:34:36.372Z,18.70
2022-08-14T00:36:59.914Z,18.71
2022-08-14T00:39:30.308Z,18.57
2022-08-14T00:41:58.547Z,18.69
2022-08-14T00:44:32.978Z,18.48
2022-08-14T00:47:10.839Z,18.69
2022-08-14T00:49:43.076Z,18.71
2022-08-14T00:52:17.552Z,18.54
2022-08-14T00:54:58.274Z,18.55
2022-08-14T00:57:36.278Z,18.72
2022-08-14T01:00:34.100Z,18.75
2022-08-14T01:03:05.139Z,18.79
2022-08-14T01:05:41.725Z,18.79
2022-08-14T01:08:57.783Z,18.82
2022-08-14T01:11:19.425Z,18.83
2022-08-14T01:13:56.234Z,18.60
2022-08-14T01:16:31.488Z,18.76
2022-08-14T01:19:19.551Z,18.66
2022-08-14T01:21:52.947Z,18.85
2022-08-14T01:24:34.139Z,18.62
2022-08-14T01:27:05.552Z,18.66
2022-08-14T01:29:58.799Z,18.85
2022-08-14T01:32:26.246Z,18.84
2022-08-14T01:35:17.299Z,18.85
2022-08-14T01:37:54.488Z,18.82
2022-08-14T01:40:33.219Z,18.83
2022-08-14T01:43:18.652Z,18.72
2022-08-14T01:46:05.842Z,18.61
2022-08-14T01:48:37.107Z,18.68
2022-08-14T01:51:19.012Z,18.73
2022-08-14T01:53:55.640Z,18.84
2022-08-14T01:56:48.676Z,18.86
2022-08-14T01:59:37.962Z,18.63
2022-08-14T02:02:18.981Z,18.87
2022-08-14T02:04:56.575Z,18.86
2022-08-14T02:07:34.930Z,18.87
2022-08-14T02:10:15.770Z,18.87
2022-08-14T02:12:54.196Z,18.86
2022-08-14T02:15:26.450Z,18.84
2022-08-14T02:17:54.707Z,18.82
2022-08-14T02:20:23.490Z,18.73
2022-08-14T02:22:54.691Z,18.82
2022-08-14T02:25:24.027Z,18.85
2022-08-14T02:28:25.655Z,18.86
2022-08-14T02:30:46.844Z,18.63
2022-08-14T02:33:14.753Z,18.83
2022-08-14T02:35:46.720Z,18.63
2022-08-14T02:38:30.608Z,18.79
2022-08-14T02:41:02.836Z,18.64
2022-08-14T02:43:46.199Z,18.67
2022-08-14T02:46:20.776Z,18.81
2022-08-14T02:49:01.313Z,18.81
2022-08-14T02:51:35.012Z,18.82
2022-08-14T02:54:07.925Z,18.82
2022-08-14T02:57:16.344Z,18.84
2022-08-14T02:59:33.929Z,18.61
2022-08-14T03:02:03.799Z,18.78
2022-08-14T03:04:32.883Z,18.83
2022-08-14T03:07:06.287Z,18.82
2022-08-14T03:09:42.192Z,18.61
2022-08-14T03:12:31.889Z,18.62
2022-08-14T03:15:14.445Z,18.81
2022-08-14T03:17:57.458Z,18.75
2022-08-14T03:20:29.007Z,18.83
2022-08-14T03:23:04.233Z,18.46
2022-08-14T03:25:37.381Z,18.83
2022-08-14T03:28:14.647Z,18.71
2022-08-14T03:31:01.028Z,18.68
2022-08-14T03:33:37.751Z,18.88
2022-08-14T03:37:52.043Z,18.85
2022-08-14T03:39:15.411Z,18.86
2022-08-14T03:41:54.901Z,18.86
2022-08-14T03:45:19.079Z,18.76
2022-08-14T03:47:15.510Z,18.93
2022-08-14T03:49:50.055Z,18.91
2022-08-14T03:52:38.843Z,18.71
2022-08-14T03:55:12.408Z,18.67
2022-08-14T03:57:41.597Z,18.89
2022-08-14T04:00:43.073Z,18.96
2022-08-14T04:03:05.675Z,18.97
2022-08-14T04:05:43.294Z,19.02
2022-08-14T04:08:29.884Z,18.99
2022-08-14T04:11:01.309Z,19.03
2022-08-14T04:13:33.924Z,18.86
2022-08-14T04:16:12.329Z,19.06
2022-08-14T04:18:47.127Z,18.87
2022-08-14T04:21:17.430Z,19.08
2022-08-14T04:23:56.967Z,19.10
2022-08-14T04:26:42.770Z,19.14
2022-08-14T04:29:16.197Z,19.01
2022-08-14T04:33:00.117Z,19.31
2022-08-14T04:34:41.988Z,19.36
2022-08-14T04:37:29.072Z,19.46
2022-08-14T04:40:16.008Z,19.57
2022-08-14T04:43:02.831Z,19.55
2022-08-14T04:45:36.457Z,19.62
2022-08-14T04:48:36.748Z,19.41
2022-08-14T04:51:07.212Z,19.66
2022-08-14T04:53:43.061Z,19.55
2022-08-14T04:56:30.832Z,19.61
2022-08-14T04:59:10.360Z,19.90
2022-08-14T05:01:45.270Z,19.92
2022-08-14T05:04:22.918Z,19.89
2022-08-14T05:06:54.986Z,19.89
2022-08-14T05:09:28.633Z,19.73
2022-08-14T05:13:02.825Z,19.99
2022-08-14T05:14:55.132Z,19.94
2022-08-14T05:17:34.761Z,19.76
2022-08-14T05:21:05.113Z,19.97
2022-08-14T05:23:02.454Z,20.03
2022-08-14T05:25:33.694Z,20.13
2022-08-14T05:28:20.551Z,20.31
2022-08-14T05:30:59.282Z,20.32
2022-08-14T05:33:30.182Z,20.29
2022-08-14T05:36:02.845Z,20.43
2022-08-14T05:38:36.993Z,20.35
2022-08-14T05:41:18.082Z,20.39
2022-08-14T05:43:48.156Z,20.19
2022-08-14T05:46:23.500Z,20.11
2022-08-14T05:48:56.250Z,20.26
2022-08-14T05:51:28.138Z,20.37
2022-08-14T05:54:11.419Z,20.35
2022-08-14T05:56:42.193Z,20.27
2022-08-14T05:59:12.435Z,20.21
2022-08-14T06:01:40.495Z,20.33
2022-08-14T06:04:09.385Z,20.30
2022-08-14T06:06:40.885Z,20.40
2022-08-14T06:09:10.681Z,20.72
2022-08-14T06:11:38.608Z,20.81
2022-08-14T06:14:20.637Z,20.93
2022-08-14T06:16:50.130Z,20.99
2022-08-14T06:19:23.224Z,21.22
2022-08-14T06:21:59.052Z,21.28
2022-08-14T06:24:30.604Z,21.68
2022-08-14T06:27:05.837Z,21.67
2022-08-14T06:29:35.278Z,21.58
2022-08-14T06:32:37.528Z,21.82
2022-08-14T06:35:02.187Z,21.83
2022-08-14T06:37:42.445Z,22.03
2022-08-14T06:40:25.576Z,21.92
2022-08-14T06:43:03.547Z,21.89
2022-08-14T06:45:38.746Z,21.68
2022-08-14T06:48:33.351Z,21.82
2022-08-14T06:51:04.010Z,21.84
2022-08-14T06:53:32.180Z,21.83
2022-08-14T06:56:02.379Z,21.90
2022-08-14T06:58:31.893Z,22.19
2022-08-14T07:01:26.646Z,22.44
2022-08-14T07:04:23.879Z,22.14
2022-08-14T07:06:55.583Z,22.04
2022-08-14T07:09:44.069Z,22.17
2022-08-14T07:12:56.067Z,22.16
2022-08-14T07:15:07.894Z,22.09
2022-08-14T07:17:52.090Z,22.37
2022-08-14T07:20:31.091Z,22.51
2022-08-14T07:23:08.601Z,22.40
2022-08-14T07:25:40.280Z,22.24
2022-08-14T07:28:20.629Z,22.55
2022-08-14T07:31:04.893Z,22.79
2022-08-14T07:33:46.725Z,22.72
2022-08-14T07:36:27.597Z,22.69
2022-08-14T07:39:03.189Z,22.97
2022-08-14T07:41:42.465Z,23.01
2022-08-14T07:44:32.753Z,23.13
2022-08-14T07:47:01.128Z,23.48
2022-08-14T07:49:30.200Z,23.61
2022-08-14T07:52:00.177Z,23.69
2022-08-14T07:54:30.350Z,23.69
2022-08-14T07:57:11.778Z,23.65
2022-08-14T07:59:44.469Z,23.67
2022-08-14T08:02:19.254Z,23.83
2022-08-14T08:04:59.403Z,23.96
2022-08-14T08:07:31.548Z,24.18
2022-08-14T08:10:46.045Z,24.26
2022-08-14T08:13:22.189Z,24.29
2022-08-14T08:15:58.159Z,24.37
2022-08-14T08:18:29.173Z,24.43
2022-08-14T08:21:00.187Z,24.83
2022-08-14T08:23:40.233Z,25.06
2022-08-14T08:26:12.078Z,25.07
2022-08-14T08:28:43.717Z,25.10
2022-08-14T08:31:12.940Z,25.13
2022-08-14T08:33:46.937Z,24.98
2022-08-14T08:36:18.543Z,24.77
2022-08-14T08:39:17.305Z,24.81
2022-08-14T08:41:49.484Z,25.30
2022-08-14T08:44:33.111Z,25.88
2022-08-14T08:47:06.728Z,26.80
2022-08-14T08:49:52.707Z,26.81
2022-08-14T08:52:31.939Z,26.38
2022-08-14T08:55:04.558Z,26.16
2022-08-14T08:57:38.012Z,26.43
2022-08-14T09:00:25.787Z,26.65
2022-08-14T09:03:13.042Z,26.21
2022-08-14T09:06:03.186Z,25.93
2022-08-14T09:08:34.214Z,26.28
2022-08-14T09:11:19.719Z,26.28
2022-08-14T09:13:54.322Z,26.91
2022-08-14T09:16:25.932Z,27.29
2022-08-14T09:18:55.261Z,27.16
2022-08-14T09:21:24.912Z,26.96
2022-08-14T09:24:29.388Z,26.16
2022-08-14T09:26:50.072Z,26.24
2022-08-14T09:29:23.546Z,26.52
2022-08-14T09:31:58.308Z,26.41
2022-08-14T09:35:03.770Z,26.63
2022-08-14T09:38:19.682Z,26.70
2022-08-14T09:42:21.649Z,26.74
2022-08-14T09:45:30.347Z,26.88
2022-08-14T09:48:30.033Z,26.76
2022-08-14T09:54:18.290Z,27.10
2022-08-14T09:56:56.499Z,27.24
2022-08-14T09:59:27.940Z,27.59
2022-08-14T10:01:57.577Z,27.31
2022-08-14T10:04:34.257Z,27.52
2022-08-14T10:07:05.593Z,27.61
2022-08-14T10:09:35.101Z,27.70
2022-08-14T10:12:05.699Z,27.36
2022-08-14T10:14:36.989Z,27.42
2022-08-14T10:17:08.407Z,27.07
2022-08-14T10:19:49.212Z,27.44
2022-08-14T10:23:13.030Z,27.55
2022-08-14T10:25:18.040Z,26.99
2022-08-14T10:27:58.296Z,27.69
2022-08-14T10:30:36.912Z,27.92
2022-08-14T10:33:07.093Z,27.81
2022-08-14T10:35:48.134Z,28.09
2022-08-14T10:38:37.421Z,28.33
2022-08-14T10:41:20.973Z,29.30
2022-08-14T10:44:20.901Z,28.93
2022-08-14T10:47:40.917Z,29.40
2022-08-14T10:50:01.720Z,29.72
2022-08-14T10:52:34.871Z,29.77
2022-08-14T10:55:21.010Z,30.23
2022-08-14T10:57:54.793Z,30.96
2022-08-14T11:00:30.327Z,31.16
2022-08-14T11:03:19.821Z,30.21
2022-08-14T11:05:57.955Z,29.53
2022-08-14T11:08:34.234Z,29.40
2022-08-14T11:11:06.192Z,28.88
2022-08-14T11:13:34.665Z,28.71
2022-08-14T11:16:03.272Z,28.21
2022-08-14T11:18:36.282Z,28.49
2022-08-14T11:21:10.607Z,28.61
2022-08-14T11:23:41.094Z,28.03
2022-08-14T11:26:19.246Z,28.12
2022-08-14T11:28:50.196Z,27.63
2022-08-14T11:31:24.213Z,28.13
2022-08-14T11:33:57.006Z,28.27
2022-08-14T11:36:57.009Z,28.16
2022-08-14T11:39:34.749Z,28.51
2022-08-14T11:43:07.948Z,28.75
2022-08-14T11:45:00.372Z,28.81
2022-08-14T11:47:35.594Z,28.85
2022-08-14T11:50:38.563Z,28.94
2022-08-14T11:53:20.240Z,29.12
2022-08-14T11:56:05.491Z,29.20
2022-08-14T11:58:38.603Z,29.83
2022-08-14T12:01:09.529Z,30.73
2022-08-14T12:03:52.090Z,30.19
2022-08-14T12:06:28.796Z,30.20
2022-08-14T12:09:15.290Z,30.84
2022-08-14T12:11:47.716Z,31.39
2022-08-14T12:14:34.568Z,31.32
2022-08-14T12:17:11.782Z,30.79
2022-08-14T12:19:53.952Z,30.96
2022-08-14T12:22:48.057Z,31.19
2022-08-14T12:25:24.706Z,31.52
2022-08-14T12:27:59.079Z,32.00
2022-08-14T12:30:43.031Z,32.02
2022-08-14T12:33:30.509Z,31.84
2022-08-14T12:36:10.556Z,31.77
2022-08-14T12:38:49.886Z,31.48
2022-08-14T12:41:28.058Z,30.87
2022-08-14T12:44:16.864Z,30.94
2022-08-14T12:46:50.223Z,31.05
2022-08-14T12:49:23.060Z,31.23
2022-08-14T12:52:03.281Z,31.15
2022-08-14T12:54:32.430Z,30.80
2022-08-14T12:57:14.618Z,30.65
2022-08-14T12:59:45.791Z,30.95
2022-08-14T13:02:25.302Z,31.35
2022-08-14T13:04:59.269Z,31.60
2022-08-14T13:07:32.698Z,31.18
2022-08-14T13:10:46.070Z,30.02
2022-08-14T13:13:12.971Z,29.22
2022-08-14T13:15:47.890Z,29.58
2022-08-14T13:18:17.851Z,30.05
2022-08-14T13:20:51.198Z,30.80
2022-08-14T13:23:31.778Z,30.99
2022-08-14T13:26:01.690Z,30.75
2022-08-14T13:28:41.219Z,30.29
2022-08-14T13:31:30.178Z,30.48
2022-08-14T13:34:00.357Z,30.82
2022-08-14T13:36:54.378Z,30.94
2022-08-14T13:39:22.698Z,31.08
2022-08-14T13:41:55.532Z,31.83
2022-08-14T13:44:27.846Z,31.56
2022-08-14T13:46:55.882Z,30.38
2022-08-14T13:49:24.609Z,30.39
2022-08-14T13:52:14.573Z,30.00
2022-08-14T13:54:55.618Z,29.93
2022-08-14T13:57:30.458Z,30.32
2022-08-14T14:00:06.969Z,30.03
2022-08-14T14:02:47.023Z,29.85
2022-08-14T14:05:18.922Z,29.85
2022-08-14T14:07:53.132Z,30.04
2022-08-14T14:10:28.231Z,30.61
2022-08-14T14:12:57.718Z,31.14
2022-08-14T14:15:33.917Z,31.51
2022-08-14T14:18:29.585Z,32.08
2022-08-14T14:21:04.742Z,31.17
2022-08-14T14:23:35.367Z,30.87
2022-08-14T14:26:04.382Z,29.91
2022-08-14T14:28:35.766Z,29.77
2022-08-14T14:31:08.577Z,30.11
2022-08-14T14:34:00.830Z,30.19
2022-08-14T14:36:42.000Z,30.31
2022-08-14T14:40:53.416Z,31.04
2022-08-14T14:42:55.740Z,30.72
2022-08-14T14:45:56.779Z,29.82
2022-08-14T14:48:29.500Z,29.87
2022-08-14T14:51:01.665Z,29.43
2022-08-14T14:53:39.182Z,29.75
2022-08-14T14:56:47.736Z,29.76
2022-08-14T15:01:51.023Z,28.82
2022-08-14T15:04:20.751Z,28.39
2022-08-14T15:06:50.196Z,28.60
2022-08-14T15:09:23.013Z,28.38
2022-08-14T15:11:53.473Z,28.56
2022-08-14T15:14:56.605Z,28.61
2022-08-14T15:17:10.938Z,28.27
2022-08-14T15:19:39.653Z,28.32
2022-08-14T15:22:10.649Z,28.13
2022-08-14T15:24:39.951Z,28.47
2022-08-14T15:27:08.621Z,28.34
2022-08-14T15:29:43.235Z,28.50
2022-08-14T15:32:11.862Z,28.15
2022-08-14T15:34:48.797Z,28.38
2022-08-14T15:37:22.990Z,28.34
2022-08-14T15:39:52.608Z,28.18
2022-08-14T15:42:24.266Z,27.91
2022-08-14T15:44:57.880Z,28.27
2022-08-14T15:47:41.576Z,28.23
2022-08-14T15:50:13.259Z,28.10
2022-08-14T15:52:42.965Z,28.01
2022-08-14T15:55:15.661Z,27.90
2022-08-14T15:58:02.164Z,27.76
2022-08-14T16:00:54.878Z,27.72
2022-08-14T16:03:27.878Z,27.53
2022-08-14T16:06:15.553Z,27.46
2022-08-14T16:08:58.885Z,27.00
2022-08-14T16:11:33.088Z,27.07
2022-08-14T16:14:01.885Z,27.12
2022-08-14T16:16:50.102Z,26.80
2022-08-14T16:19:24.817Z,26.84
2022-08-14T16:22:02.146Z,26.59
2022-08-14T16:25:00.155Z,25.69
2022-08-14T16:27:41.267Z,23.38
2022-08-14T16:30:20.521Z,21.19
2022-08-14T16:33:00.937Z,20.21
2022-08-14T16:38:45.941Z,19.09
2022-08-14T16:40:25.496Z,19.68
2022-08-14T16:41:23.193Z,18.58
2022-08-14T16:44:02.298Z,18.45
2022-08-14T16:46:37.156Z,18.16
2022-08-14T16:49:10.379Z,17.98
2022-08-14T16:51:41.275Z,18.30
2022-08-14T16:54:33.641Z,17.89
2022-08-14T16:57:33.185Z,18.25
2022-08-14T17:00:07.375Z,18.36
2022-08-14T17:02:59.073Z,18.38
2022-08-14T17:05:28.989Z,18.35
2022-08-14T17:08:32.761Z,18.32
2022-08-14T17:10:57.284Z,18.06
2022-08-14T17:13:58.595Z,18.10
2022-08-14T17:16:25.079Z,18.15
2022-08-14T17:19:01.073Z,18.20
2022-08-14T17:21:37.548Z,18.43
2022-08-14T17:24:57.483Z,18.45
2022-08-14T17:27:04.438Z,18.37
2022-08-14T17:29:56.720Z,18.20
2022-08-14T17:32:56.736Z,18.37
2022-08-14T17:35:57.453Z,18.20
2022-08-14T17:38:38.865Z,18.27
2022-08-14T17:41:24.294Z,18.40
2022-08-14T17:44:14.505Z,18.23
2022-08-14T17:46:57.329Z,18.55
2022-08-14T17:49:40.440Z,17.76
2022-08-14T17:52:17.236Z,18.59
2022-08-14T17:54:52.450Z,18.58
2022-08-14T17:57:28.390Z,18.56
2022-08-14T17:59:59.298Z,18.64
2022-08-14T18:02:30.965Z,18.55
2022-08-14T18:05:02.995Z,18.59
2022-08-14T18:08:00.481Z,18.55
2022-08-14T18:10:55.076Z,18.55
2022-08-14T18:13:10.692Z,18.57
2022-08-14T18:15:51.138Z,18.64
2022-08-14T18:18:19.602Z,18.40
2022-08-14T18:21:42.864Z,18.57
2022-08-14T18:23:43.754Z,18.50
2022-08-14T18:26:37.017Z,18.23
2022-08-14T18:29:09.902Z,18.31
2022-08-14T18:31:45.453Z,18.39
2022-08-14T18:34:30.843Z,18.34
2022-08-14T18:37:19.466Z,18.50
2022-08-14T18:40:03.027Z,18.48
2022-08-14T18:42:35.384Z,18.52
2022-08-14T18:45:12.599Z,18.23
2022-08-14T18:50:54.607Z,18.45
2022-08-14T18:53:25.578Z,18.22
2022-08-14T18:56:09.786Z,18.42
2022-08-14T18:58:58.487Z,18.23
2022-08-14T19:01:33.610Z,18.41
2022-08-14T19:04:04.059Z,18.32
2022-08-14T19:06:44.720Z,18.46
2022-08-14T19:10:06.301Z,18.46
2022-08-14T19:13:05.027Z,18.37
2022-08-14T19:15:56.296Z,18.29
2022-08-14T19:18:38.610Z,18.37
2022-08-14T19:21:24.014Z,18.35
2022-08-14T19:24:27.854Z,18.35
2022-08-14T19:27:37.499Z,18.32
2022-08-14T19:30:19.897Z,18.30
2022-08-14T19:32:57.758Z,18.29
2022-08-14T19:35:48.503Z,18.24
2022-08-14T19:38:45.384Z,18.19
2022-08-14T19:41:29.132Z,18.15
2022-08-14T19:44:19.741Z,18.07
2022-08-14T19:47:02.768Z,18.08
2022-08-14T19:50:07.997Z,18.11
2022-08-14T19:52:39.638Z,17.97
2022-08-14T19:55:20.379Z,18.01
2022-08-14T19:57:58.757Z,18.05
2022-08-14T20:00:30.471Z,17.82
2022-08-14T20:03:10.978Z,18.00
2022-08-14T20:05:45.553Z,18.04
2022-08-14T20:11:00.192Z,18.04
2022-08-14T20:11:41.610Z,18.00
2022-08-14T20:14:10.341Z,18.07
2022-08-14T20:16:44.210Z,18.08
2022-08-14T20:19:28.744Z,18.06
2022-08-14T20:22:35.614Z,18.05
2022-08-14T20:24:56.497Z,18.14
2022-08-14T20:27:33.936Z,17.99
2022-08-14T20:30:35.220Z,18.23
2022-08-14T20:33:11.181Z,18.26
2022-08-14T20:35:39.800Z,18.27
2022-08-14T20:38:28.999Z,18.17
2022-08-14T20:41:06.628Z,17.96
2022-08-14T20:44:02.778Z,17.95
2022-08-14T20:46:42.345Z,18.23
2022-08-14T20:49:17.016Z,18.23
2022-08-14T20:52:00.444Z,18.17
2022-08-14T20:54:36.825Z,18.19
2022-08-14T20:57:18.650Z,17.88
2022-08-14T20:59:53.192Z,17.83
2022-08-14T21:02:46.814Z,18.01
2022-08-14T21:05:34.320Z,17.76
2022-08-14T21:08:09.603Z,17.92
2022-08-14T21:10:56.697Z,17.91
2022-08-14T21:14:09.180Z,17.91
2022-08-14T21:16:33.256Z,17.89
2022-08-14T21:19:04.258Z,17.84
2022-08-14T21:21:41.872Z,17.36
2022-08-14T21:24:38.702Z,17.63
2022-08-14T21:27:12.895Z,17.43
2022-08-14T21:29:55.356Z,17.43
2022-08-14T21:32:33.733Z,17.77
2022-08-14T21:35:08.736Z,17.82
2022-08-14T21:37:47.626Z,17.89
2022-08-14T21:40:40.115Z,17.96
2022-08-14T21:43:17.370Z,17.97
2022-08-14T21:45:53.786Z,18.05
2022-08-14T21:48:30.116Z,17.97
2022-08-14T21:51:53.529Z,18.00
2022-08-14T21:53:59.745Z,18.02
2022-08-14T21:56:40.842Z,17.95
2022-08-14T21:59:29.398Z,17.95
2022-08-14T22:02:03.810Z,18.09
2022-08-14T22:04:39.985Z,18.02
2022-08-14T22:07:16.654Z,17.92
2022-08-14T22:09:55.486Z,17.90
2022-08-14T22:12:58.505Z,17.90
2022-08-14T22:15:17.261Z,17.67
2022-08-14T22:17:54.162Z,17.79
2022-08-14T22:20:28.711Z,17.44
2022-08-14T22:23:00.967Z,17.68
2022-08-14T22:25:40.833Z,17.73
2022-08-14T22:28:17.726Z,17.69
2022-08-14T22:30:48.374Z,17.75
2022-08-14T22:33:31.133Z,17.85
2022-08-14T22:36:25.125Z,17.84
2022-08-14T22:38:55.769Z,17.68
2022-08-14T22:41:30.425Z,17.74
2022-08-14T22:44:11.072Z,17.44
2022-08-14T22:46:43.315Z,17.41
2022-08-14T22:49:16.507Z,17.37
2022-08-14T22:52:32.872Z,17.64
2022-08-14T22:54:54.788Z,17.67
2022-08-14T22:57:23.197Z,17.62
2022-08-14T22:59:52.501Z,17.64
2022-08-14T23:02:30.654Z,17.67
2022-08-14T23:05:04.791Z,17.71
2022-08-14T23:08:59.939Z,17.47
2022-08-14T23:10:32.567Z,17.58
2022-08-14T23:13:06.774Z,17.34
2022-08-14T23:15:37.515Z,17.43
2022-08-14T23:18:06.274Z,17.51
2022-08-14T23:20:36.375Z,17.49
2022-08-14T23:23:22.586Z,17.47
2022-08-14T23:25:58.700Z,17.48
2022-08-14T23:28:34.706Z,17.47
2022-08-14T23:31:34.571Z,17.24
2022-08-14T23:34:07.606Z,17.49
2022-08-14T23:36:53.556Z,17.52
2022-08-14T23:39:33.137Z,17.53
2022-08-14T23:42:08.500Z,17.57
2022-08-14T23:44:39.238Z,17.56
2022-08-14T23:47:11.721Z,17.57
2022-08-14T23:50:00.546Z,17.37
2022-08-14T23:53:06.829Z,17.58
2022-08-14T23:55:32.964Z,17.61
2022-08-14T23:58:01.220Z,17.56
